Terminal Aerodrome Forecast
Issued by NWS

Current Version | Previous Version | Text Only | Print | Product List | Glossary Off
Versions: 1 2 3 4 5 6 7 8 9 10 11 12 13 14 15 16 17 18 19 20 21 22 23 24 25 26 27 28

000
FTUS41 KRLX 240100 AAA
TAFCKB
TAF AMD
KCKB 240130Z 2402/2424 02007KT 6SM -RASN OVC050
      TEMPO 2402/2403 2SM -SN BR BKN030
     FM240500 04004KT P6SM OVC040
     FM240700 03003KT P6SM OVC020
     FM241500 04002KT P6SM BKN040
     FM241900 VRB03KT P6SM SCT040=

USA.gov is the U.S. government's official web portal to all federal, state and local government web resources and services.